METAR Formatted Surface Weather Observation
Issued by NWS

Home | Current Version | Previous Version | Text Only | Print | Product List | Glossary On
Versions: 1 2 3 4 5 6 7 8 9 10 11 12 13 14
000
SAUS41 KGYX 212058
MTRNKT
METAR KNKT 212054Z 06005KT 10SM OVC070 15/09 A3015 RMK AO2 SLP206
T01500094 55011



USA.gov is the U.S. government's official web portal to all federal, state and local government web resources and services.